Portada
METAR-TAF:

METAR-TAF

Aeroports :

Campos dos Goytacazes, Rio de Janeiro, Brasil

latitud: 21-45S, longitud: 041-20W, altitud: 11 m

Observació

L'informe es va fer fa 2 hores i 21 minuts, a les 21:00 UTC
Vent 15 kt del Est
Temperatura 24°C
Humitat 78%
Pressió 1015 hPa
Visibilitat 10 km o més
Núvols disperses a una alçada de 2000 ft
Cel ennuvolat a una alçada de 7000 ft

METAR: SBCP 132100Z 08015KT 9999 SCT020 BKN070 24/20 Q1015

Hora: 21:21 (23:21 UTC)

Pronòstic

L'informe es va fer fa 8 hores i 21 minuts, a les 15:00 UTC
Pronòstic vàlid del 13 a les 18 UTC al 14 a les 06 UTC
Vent 10 kt del Sud
Visibilitat: 8000 m
Cel ennuvolat a una alçada de 1500 ft
Temporalment
l' 13 a les 20 UTC al 13 a les 24 UTC
Vent 10 kt del Est
Visibilitat: 4000 m
Cel ennuvolat a una alçada de 1000 ft
plugim, boirina

TAF: SBCP 131500Z 1318/1406 18010KT 8000 BKN015 TX27/1318Z TN22/1406Z TEMPO 1320/1324 09010KT 4000 DZ BR BKN010 RMK PGZ

Observacions i pronòstics meteorològics de més de 4000 aeroports (METAR i TAF).

Les estacions disponibles són els punts grocs i vermells al mapa.

Posi el ratolí al punt desitjat per veure el nom de l'estació.

Feu clic per veure les observacions i els pronòstics meteorològics.

Per canviar el mapa: feu clic els botons verds amb una creu de color negre per apropar; al botó verd amb un guió per allunyar la imatge; o en les fletxes verdes per a mapes adjacents.


METAR-TAF: